This is the latest recevied weather packets stored in our database for station/object HS1AXC-1. If no packets are shown the sender has not sent any weather packets the latest 10 day(s).
| Time | Temp. | Humidity | Pressure | Rain* | Wind** | Luminosity | Snow |
|---|---|---|---|---|---|---|---|
| 1777837481 | 33.89° C | 80% | 1009 hPa | - | - | 0 W/m² | - |
| 1777836859 | 35° C | 75% | 1009 hPa | - | - | 0 W/m² | - |
| 1777836237 | 35° C | 77% | 1009 hPa | - | - | 0 W/m² | - |
| 1777835615 | 34.44° C | 77% | 1009 hPa | - | - | 0 W/m² | - |
| 1777834993 | 35.56° C | 75% | 1009 hPa | - | - | 0 W/m² | - |
| 1777834371 | 35° C | 76% | 1009 hPa | - | - | 0 W/m² | - |
| 1777833749 | 35° C | 77% | 1009 hPa | - | - | 0 W/m² | - |
| 1777833127 | 35.56° C | 76% | 1009 hPa | - | - | 0 W/m² | - |
| 1777832505 | 35° C | 77% | 1009 hPa | - | - | 0 W/m² | - |
| 1777831883 | 35° C | 78% | 1009 hPa | - | - | 0 W/m² | - |
| 1777831261 | 35° C | 79% | 1009 hPa | - | - | 0 W/m² | - |
| 1777830639 | 35.56° C | 77% | 1009 hPa | - | - | 0 W/m² | - |
| 1777830017 | 35.56° C | 78% | 1009 hPa | - | - | 0 W/m² | - |
| 1777829395 | 35.56° C | 78% | 1009 hPa | - | - | 0 W/m² | - |
| 1777828913 | 34.44° C | 81% | 1009 hPa | - | - | 0 W/m² | - |
| 1777828291 | 35.56° C | 77% | 1009 hPa | - | - | 0 W/m² | - |
| 1777827669 | 35.56° C | 76% | 1009 hPa | - | - | 0 W/m² | - |
| 1777827047 | 35.56° C | 73% | 1009 hPa | - | - | 0 W/m² | - |
| 1777826425 | 35.56° C | 72% | 1009 hPa | - | - | 0 W/m² | - |
| 1777825802 | 35.56° C | 71% | 1009 hPa | - | - | 0 W/m² | - |
| 1777825180 | 35° C | 72% | 1009 hPa | - | - | 0 W/m² | - |
| 1777824558 | 35.56° C | 70% | 1009 hPa | - | - | 0 W/m² | - |
| 1777823936 | 35° C | 71% | 1009 hPa | - | - | 0 W/m² | - |
| 1777823314 | 35.56° C | 69% | 1009 hPa | - | - | 0 W/m² | - |
| 1777822692 | 35° C | 71% | 1009 hPa | - | - | 0 W/m² | - |
* Rain since midnight (hover to see other rain measurements)
** Current wind speed in m/s (hover to see current wind gust speed)